Time;durP1;ratioP1;P1;durP2;ratioP2;P2;SDS_P1;SDS_P2;PMS_P1;PMS_P2;Temp;Humidity;BMP_temperature;BMP_pressure;BME280_temperature;BME280_humidity;BME280_pressure;Samples;Min_cycle;Max_cycle;Signal;HPM_P1;HPM_P2
2023/05/25 00:01:29;;;;;;;12.32;3.13;;;8.80;99.90;;;;;;5048653;28;20049;-82
2023/05/25 00:03:55;;;;;;;7.70;3.30;;;8.70;99.90;;;;;;5046993;28;20041;-83
2023/05/25 00:06:21;;;;;;;4.63;2.13;;;8.70;99.90;;;;;;5049655;28;20033;-83
2023/05/25 00:08:47;;;;;;;10.30;3.35;;;8.60;99.90;;;;;;5051472;28;20037;-82
2023/05/25 00:11:13;;;;;;;7.65;3.17;;;8.60;99.90;;;;;;5044496;28;20044;-82
2023/05/25 00:13:39;;;;;;;7.95;3.38;;;8.50;99.90;;;;;;5052155;28;20062;-82
2023/05/25 00:16:05;;;;;;;4.38;2.30;;;8.40;99.90;;;;;;5051941;28;20047;-82
2023/05/25 00:18:32;;;;;;;7.05;3.20;;;8.20;99.90;;;;;;5051993;28;20423;-82
2023/05/25 00:21:04;;;;;;;10.25;3.65;;;8.10;99.90;;;;;;5052113;28;20064;-83
2023/05/25 00:23:30;;;;;;;10.35;2.92;;;8.00;99.90;;;;;;5048902;28;20133;-82
2023/05/25 00:25:55;;;;;;;6.82;2.45;;;7.90;99.90;;;;;;5028962;28;20119;-82
2023/05/25 00:28:21;;;;;;;5.60;3.17;;;7.70;99.90;;;;;;5049673;28;20510;-82
2023/05/25 00:30:46;;;;;;;4.53;2.78;;;7.70;99.90;;;;;;5050857;28;20041;-83
2023/05/25 00:33:12;;;;;;;5.75;3.00;;;7.30;99.90;;;;;;5045618;28;20072;-82
2023/05/25 00:35:37;;;;;;;8.05;2.95;;;7.50;99.90;;;;;;5049846;28;20063;-82
2023/05/25 00:38:03;;;;;;;6.55;3.30;;;7.60;99.90;;;;;;5052076;28;20499;-82
2023/05/25 00:40:28;;;;;;;5.65;3.33;;;7.60;99.90;;;;;;5049689;28;20127;-82
2023/05/25 00:42:55;;;;;;;4.20;3.45;;;7.60;99.90;;;;;;5051488;28;20402;-82
2023/05/25 00:45:20;;;;;;;4.80;2.75;;;7.50;99.90;;;;;;5053356;28;20126;-83
2023/05/25 00:47:53;;;;;;;9.82;3.50;;;7.30;99.90;;;;;;5052930;28;20434;-82
2023/05/25 00:50:26;;;;;;;7.47;4.63;;;7.30;99.90;;;;;;5050614;28;20091;-82
2023/05/25 00:52:53;;;;;;;14.10;4.03;;;7.10;99.90;;;;;;5047769;28;20045;-82
2023/05/25 00:55:20;;;;;;;8.25;3.70;;;6.90;99.90;;;;;;5052501;28;20056;-82
2023/05/25 00:57:50;;;;;;;5.95;3.95;;;6.80;99.90;;;;;;5049036;28;20048;-82
2023/05/25 01:00:16;;;;;;;4.47;3.20;;;6.80;99.90;;;;;;5050698;28;20051;-82
2023/05/25 01:02:43;;;;;;;10.98;3.67;;;6.80;99.90;;;;;;5049240;28;20131;-82
2023/05/25 01:05:11;;;;;;;9.93;4.18;;;6.80;99.90;;;;;;5049997;28;20033;-81
2023/05/25 01:07:39;;;;;;;6.70;4.15;;;6.90;99.90;;;;;;5051805;28;20041;-82
2023/05/25 01:10:07;;;;;;;3.65;2.60;;;6.80;99.90;;;;;;5049114;28;20048;-81
2023/05/25 01:12:39;;;;;;;3.75;2.85;;;6.70;99.90;;;;;;5049843;28;20060;-82
2023/05/25 01:15:05;;;;;;;4.53;2.88;;;6.80;99.90;;;;;;5044050;28;20087;-82
2023/05/25 01:17:31;;;;;;;3.97;3.35;;;6.80;99.90;;;;;;5054123;28;20476;-82
2023/05/25 01:20:00;;;;;;;4.63;3.03;;;6.90;99.90;;;;;;5051812;28;20060;-82
2023/05/25 01:22:46;;;;;;;3.92;2.80;;;6.90;99.90;;;;;;5047257;28;20059;-82
2023/05/25 01:25:14;;;;;;;;;;;7.00;99.90;;;;;;5050876;28;20033;-81
2023/05/25 01:27:45;;;;;;;2.17;1.58;;;7.00;99.90;;;;;;5051650;28;19921;-82
2023/05/25 01:30:13;;;;;;;4.03;2.33;;;6.90;99.90;;;;;;5051612;28;20128;-82
2023/05/25 01:32:41;;;;;;;5.85;2.40;;;6.90;99.90;;;;;;5054140;28;20041;-82
2023/05/25 01:35:08;;;;;;;3.17;2.08;;;7.00;99.90;;;;;;5048949;28;20048;-82
2023/05/25 01:37:36;;;;;;;4.53;2.28;;;6.90;99.90;;;;;;5048538;28;20098;-82
2023/05/25 01:40:04;;;;;;;6.55;3.25;;;6.90;99.90;;;;;;5051742;28;20119;-82
2023/05/25 01:42:30;;;;;;;5.85;2.65;;;7.00;99.90;;;;;;5052779;28;20044;-81
2023/05/25 01:44:57;;;;;;;7.05;3.28;;;7.10;99.90;;;;;;5052188;28;20495;-82
2023/05/25 01:47:36;;;;;;;7.38;3.65;;;7.10;99.90;;;;;;5031681;28;20041;-82
2023/05/25 01:50:16;;;;;;;7.80;3.60;;;7.10;99.90;;;;;;5052049;28;20048;-82
2023/05/25 01:52:49;;;;;;;5.93;2.50;;;7.20;99.90;;;;;;5031713;28;20495;-82
2023/05/25 01:55:17;;;;;;;6.88;3.08;;;7.10;99.90;;;;;;5050082;28;20415;-82
2023/05/25 01:57:48;;;;;;;3.78;2.90;;;7.00;99.90;;;;;;5050081;28;20089;-81
2023/05/25 02:00:16;;;;;;;2.63;2.42;;;7.00;99.90;;;;;;5063979;28;20044;-82
2023/05/25 02:02:45;;;;;;;5.53;4.13;;;7.00;99.90;;;;;;5053027;28;20068;-82
2023/05/25 02:05:11;;;;;;;7.57;4.50;;;6.90;99.90;;;;;;5049993;28;20052;-81
2023/05/25 02:07:37;;;;;;;6.43;3.90;;;6.90;99.90;;;;;;5051797;28;20044;-82
2023/05/25 02:10:02;;;;;;;9.15;4.20;;;6.80;99.90;;;;;;5049088;28;20036;-82
2023/05/25 02:12:28;;;;;;;9.10;4.50;;;6.80;99.90;;;;;;5052232;28;20041;-82
2023/05/25 02:14:53;;;;;;;6.32;4.18;;;6.80;99.90;;;;;;5053310;28;20040;-81
2023/05/25 02:17:19;;;;;;;6.32;4.20;;;6.70;99.90;;;;;;5052346;28;20311;-82
2023/05/25 02:19:47;;;;;;;6.97;3.67;;;6.80;99.90;;;;;;5049991;28;20040;-82
2023/05/25 02:22:13;;;;;;;3.45;2.30;;;6.90;99.90;;;;;;5032271;28;20033;-82
2023/05/25 02:24:38;;;;;;;4.35;3.13;;;6.80;99.90;;;;;;5050776;28;20037;-81
2023/05/25 02:27:05;;;;;;;5.93;3.97;;;6.80;99.90;;;;;;5052598;28;20048;-81
2023/05/25 02:29:30;;;;;;;10.88;5.05;;;6.70;99.90;;;;;;5051054;28;20530;-81
2023/05/25 02:31:56;;;;;;;11.07;5.07;;;6.60;99.90;;;;;;5032116;28;20072;-82
2023/05/25 02:34:22;;;;;;;5.47;4.00;;;6.50;99.90;;;;;;5050677;28;20041;-81
2023/05/25 02:36:47;;;;;;;6.40;4.25;;;6.50;99.90;;;;;;5049926;28;20120;-81
2023/05/25 02:39:13;;;;;;;8.55;3.85;;;6.50;99.90;;;;;;5053242;28;20041;-81
2023/05/25 02:41:38;;;;;;;5.50;3.60;;;6.60;99.90;;;;;;5051291;28;20041;-82
2023/05/25 02:44:04;;;;;;;6.47;3.47;;;6.60;99.90;;;;;;5052841;28;20098;-81
2023/05/25 02:46:30;;;;;;;6.63;3.70;;;6.60;99.90;;;;;;5050776;28;20186;-81
2023/05/25 02:48:57;;;;;;;4.80;3.70;;;6.60;99.90;;;;;;5050654;28;20033;-81
2023/05/25 02:51:23;;;;;;;6.70;3.60;;;6.60;99.90;;;;;;5051196;28;20040;-81
2023/05/25 02:53:48;;;;;;;5.75;3.45;;;6.60;99.90;;;;;;5052113;28;20047;-81
2023/05/25 02:56:14;;;;;;;8.40;5.50;;;6.60;99.90;;;;;;5050834;28;20128;-81
2023/05/25 02:58:40;;;;;;;7.82;4.45;;;6.60;99.90;;;;;;5050458;28;20926;-81
2023/05/25 03:01:09;;;;;;;9.38;4.40;;;6.60;99.90;;;;;;5051907;28;20090;-81
2023/05/25 03:03:35;;;;;;;7.28;4.72;;;6.60;99.90;;;;;;5051932;28;20131;-81
2023/05/25 03:06:02;;;;;;;7.60;4.90;;;6.60;99.90;;;;;;5050785;28;20065;-81
2023/05/25 03:08:28;;;;;;;10.85;5.15;;;6.70;99.90;;;;;;5051153;28;20045;-81
2023/05/25 03:10:54;;;;;;;12.98;4.78;;;6.70;99.90;;;;;;5051918;28;20033;-81
2023/05/25 03:13:20;;;;;;;11.77;4.80;;;6.90;99.90;;;;;;5045254;28;20578;-81
2023/05/25 03:15:45;;;;;;;9.68;4.85;;;6.90;99.90;;;;;;5051813;28;20056;-81
2023/05/25 03:18:11;;;;;;;12.52;5.22;;;7.00;99.90;;;;;;5048582;28;20041;-81
2023/05/25 03:20:36;;;;;;;15.57;6.15;;;7.10;99.90;;;;;;5049665;28;20041;-81
2023/05/25 03:23:02;;;;;;;12.45;6.00;;;7.10;99.90;;;;;;5050245;28;20040;-81
2023/05/25 03:25:27;;;;;;;11.13;5.25;;;7.20;99.90;;;;;;5050009;28;20530;-81
2023/05/25 03:27:53;;;;;;;11.55;5.65;;;7.30;99.90;;;;;;5049326;28;20102;-82
2023/05/25 03:30:20;;;;;;;14.30;5.38;;;7.30;99.90;;;;;;5051552;28;20041;-81
2023/05/25 03:32:46;;;;;;;10.52;5.28;;;7.40;99.90;;;;;;5052440;28;20049;-82
2023/05/25 03:35:11;;;;;;;7.05;4.22;;;7.50;99.90;;;;;;5050247;28;20323;-81
2023/05/25 03:37:37;;;;;;;6.38;4.18;;;7.50;99.90;;;;;;5033311;28;20082;-82
2023/05/25 03:40:03;;;;;;;7.35;3.75;;;7.30;99.90;;;;;;5051613;28;20377;-82
2023/05/25 03:42:29;;;;;;;10.27;4.15;;;7.30;99.90;;;;;;5049068;28;20076;-82
2023/05/25 03:44:55;;;;;;;7.80;4.22;;;7.30;99.90;;;;;;5052080;28;20037;-81
2023/05/25 03:47:20;;;;;;;7.22;4.57;;;7.30;99.90;;;;;;5049420;28;20079;-81
2023/05/25 03:49:46;;;;;;;12.02;5.07;;;7.40;99.90;;;;;;5055705;28;20063;-81
2023/05/25 03:52:11;;;;;;;13.18;5.70;;;7.40;99.90;;;;;;5055107;28;21565;-81
2023/05/25 03:54:37;;;;;;;9.85;5.05;;;7.40;99.90;;;;;;5051042;28;20448;-81
2023/05/25 03:57:03;;;;;;;11.07;5.53;;;7.50;99.90;;;;;;5051664;28;20426;-81
2023/05/25 03:59:29;;;;;;;10.30;6.32;;;7.70;99.90;;;;;;5054597;28;20044;-82
2023/05/25 04:01:55;;;;;;;13.77;6.05;;;7.70;99.90;;;;;;5053288;28;20044;-82
2023/05/25 04:04:20;;;;;;;11.75;6.10;;;7.80;99.90;;;;;;5038279;28;20045;-81
2023/05/25 04:06:48;;;;;;;11.00;5.70;;;7.90;99.90;;;;;;5052230;28;20068;-81
2023/05/25 04:09:14;;;;;;;11.85;6.18;;;8.30;99.90;;;;;;5053827;28;20045;-82
2023/05/25 04:11:40;;;;;;;11.50;5.68;;;8.80;99.90;;;;;;5056466;28;20040;-82
2023/05/25 04:14:05;;;;;;;7.55;5.65;;;9.40;99.90;;;;;;5053293;28;20037;-82
2023/05/25 04:16:31;;;;;;;11.82;5.63;;;9.90;99.90;;;;;;5055237;28;20049;-81
2023/05/25 04:18:56;;;;;;;11.35;4.75;;;10.40;99.90;;;;;;5054759;28;20037;-82
2023/05/25 04:21:22;;;;;;;12.02;4.85;;;10.80;99.90;;;;;;5054497;28;20457;-82
2023/05/25 04:23:48;;;;;;;6.18;4.13;;;11.40;99.90;;;;;;5051917;28;20054;-82
2023/05/25 04:26:17;;;;;;;8.93;3.88;;;11.90;99.90;;;;;;5044787;28;20107;-82
2023/05/25 04:28:44;;;;;;;6.03;3.08;;;12.40;99.90;;;;;;5047225;28;20047;-82
2023/05/25 04:31:11;;;;;;;8.32;3.80;;;12.80;99.90;;;;;;5054787;28;20094;-82
2023/05/25 04:33:37;;;;;;;7.93;4.28;;;13.20;99.90;;;;;;5050901;28;20392;-81
2023/05/25 04:36:07;;;;;;;7.32;3.92;;;13.70;99.90;;;;;;5048687;28;20063;-81
2023/05/25 04:38:34;;;;;;;8.88;4.10;;;13.60;99.90;;;;;;5050547;28;20040;-82
2023/05/25 04:41:01;;;;;;;7.55;3.88;;;13.20;99.90;;;;;;5050214;28;20044;-82
2023/05/25 04:43:28;;;;;;;7.82;3.97;;;12.90;99.90;;;;;;5046362;28;20044;-82
2023/05/25 04:45:54;;;;;;;9.00;4.65;;;12.70;99.90;;;;;;5050361;28;20063;-84
2023/05/25 04:48:24;;;;;;;8.93;4.80;;;12.70;99.90;;;;;;5041830;28;20055;-85
2023/05/25 04:50:51;;;;;;;11.90;4.93;;;12.40;99.90;;;;;;5017548;28;20079;-81
2023/05/25 04:53:17;;;;;;;9.63;4.15;;;12.50;99.90;;;;;;5050861;28;20477;-83
2023/05/25 04:55:43;;;;;;;8.85;4.60;;;12.70;99.90;;;;;;5051000;28;20033;-82
2023/05/25 04:58:08;;;;;;;7.80;3.88;;;12.70;99.90;;;;;;5047956;28;20418;-82
2023/05/25 05:00:35;;;;;;;9.02;5.03;;;12.60;99.90;;;;;;5054187;28;20419;-82
2023/05/25 05:03:00;;;;;;;7.20;4.85;;;12.60;99.90;;;;;;5053115;28;20437;-82
2023/05/25 05:05:26;;;;;;;8.63;4.55;;;12.50;99.90;;;;;;5048736;28;20029;-82
2023/05/25 05:07:52;;;;;;;15.52;5.32;;;12.50;99.90;;;;;;5050868;28;20123;-81
2023/05/25 05:10:18;;;;;;;8.98;4.85;;;12.60;99.90;;;;;;5047415;28;20033;-80
2023/05/25 05:12:44;;;;;;;14.25;5.65;;;12.90;99.90;;;;;;5053517;28;20040;-82
2023/05/25 05:15:10;;;;;;;12.55;4.78;;;13.70;99.90;;;;;;5051837;28;20037;-82
2023/05/25 05:17:36;;;;;;;11.02;3.92;;;14.80;99.90;;;;;;5052983;28;20497;-82
2023/05/25 05:20:03;;;;;;;8.13;4.07;;;16.30;99.90;;;;;;5054558;28;20044;-82
2023/05/25 05:22:29;;;;;;;7.47;3.78;;;17.90;99.90;;;;;;5033261;28;20033;-81
2023/05/25 05:24:55;;;;;;;9.93;4.10;;;19.40;99.90;;;;;;5051160;28;21823;-82
2023/05/25 05:27:21;;;;;;;10.85;4.15;;;20.50;99.90;;;;;;5048873;28;20071;-81
2023/05/25 05:29:46;;;;;;;10.25;4.28;;;21.70;99.90;;;;;;5053185;28;20045;-84
2023/05/25 05:32:12;;;;;;;11.95;4.43;;;22.70;99.90;;;;;;5052638;28;20082;-82
2023/05/25 05:34:38;;;;;;;12.02;4.10;;;23.70;99.90;;;;;;5051683;28;20037;-81
2023/05/25 05:37:03;;;;;;;18.48;4.25;;;24.10;99.90;;;;;;5050660;28;20033;-82
2023/05/25 05:39:29;;;;;;;12.63;4.60;;;23.90;99.90;;;;;;5049563;28;20060;-82
2023/05/25 05:41:55;;;;;;;10.98;4.22;;;23.40;99.90;;;;;;5051469;28;20499;-84
2023/05/25 05:44:21;;;;;;;11.93;4.72;;;22.90;99.90;;;;;;5052529;28;20107;-83
2023/05/25 05:46:46;;;;;;;9.57;4.13;;;22.30;99.90;;;;;;5053282;28;20048;-85
2023/05/25 05:49:13;;;;;;;12.25;5.03;;;21.80;99.90;;;;;;5051039;28;20044;-84
2023/05/25 05:51:39;;;;;;;11.90;4.65;;;21.40;99.90;;;;;;5052550;28;20479;-82
2023/05/25 05:54:12;;;;;;;9.60;5.10;;;20.90;99.90;;;;;;5046675;28;20131;-84
2023/05/25 05:56:40;;;;;;;11.38;4.57;;;20.60;99.90;;;;;;5050416;28;20137;-83
2023/05/25 05:59:06;;;;;;;12.07;4.88;;;20.50;99.90;;;;;;5052163;28;20052;-81
2023/05/25 06:01:31;;;;;;;15.82;4.72;;;20.10;99.90;;;;;;5025326;28;20087;-82
2023/05/25 06:03:57;;;;;;;8.63;4.47;;;19.90;99.90;;;;;;5047546;28;20036;-84
2023/05/25 06:06:23;;;;;;;11.00;4.93;;;19.70;99.90;;;;;;5045654;28;20037;-84
2023/05/25 06:08:49;;;;;;;9.13;4.63;;;19.70;99.90;;;;;;5048638;28;20095;-83
2023/05/25 06:11:15;;;;;;;17.08;5.93;;;19.70;99.90;;;;;;5046940;28;20033;-83
2023/05/25 06:13:41;;;;;;;10.45;4.45;;;19.60;99.90;;;;;;5046194;28;20043;-82
2023/05/25 06:16:06;;;;;;;11.60;4.43;;;19.80;99.90;;;;;;5040902;28;20118;-82
2023/05/25 06:18:32;;;;;;;7.75;3.42;;;19.60;99.90;;;;;;5032365;28;20041;-83
2023/05/25 06:20:59;;;;;;;9.73;3.78;;;19.50;99.90;;;;;;5049640;28;20049;-82
2023/05/25 06:23:25;;;;;;;9.05;4.30;;;19.10;99.90;;;;;;5047703;28;20080;-81
2023/05/25 06:25:53;;;;;;;10.48;3.90;;;18.70;99.90;;;;;;5032866;28;20057;-82
2023/05/25 06:28:18;;;;;;;10.25;4.20;;;18.40;99.90;;;;;;5046875;28;20045;-83
2023/05/25 06:30:44;;;;;;;12.38;4.70;;;18.00;99.90;;;;;;5043441;28;20127;-82
2023/05/25 06:33:10;;;;;;;11.00;4.38;;;17.80;99.90;;;;;;5024555;28;20110;-83
2023/05/25 06:35:35;;;;;;;7.25;3.30;;;17.60;99.90;;;;;;5045391;28;20041;-82
2023/05/25 06:38:02;;;;;;;7.72;2.85;;;17.50;99.90;;;;;;5044386;28;20068;-80
2023/05/25 06:40:27;;;;;;;11.98;4.05;;;17.20;99.90;;;;;;5048529;28;20451;-81
2023/05/25 06:42:53;;;;;;;12.02;3.92;;;17.00;99.90;;;;;;5046258;28;20033;-80
2023/05/25 06:45:20;;;;;;;10.70;4.03;;;16.80;99.90;;;;;;5044961;28;20163;-81
2023/05/25 06:47:45;;;;;;;13.40;3.85;;;16.80;99.90;;;;;;5037896;28;20040;-80
2023/05/25 06:50:12;;;;;;;12.00;3.65;;;16.70;99.90;;;;;;5033527;28;20791;-82
2023/05/25 06:52:38;;;;;;;15.52;4.35;;;16.70;99.90;;;;;;5034481;28;20067;-81
2023/05/25 06:55:04;;;;;;;9.27;2.83;;;16.70;99.90;;;;;;5033080;28;20037;-82
2023/05/25 06:57:29;;;;;;;8.77;3.65;;;16.80;99.90;;;;;;5035184;28;20044;-81
2023/05/25 06:59:55;;;;;;;12.15;3.03;;;16.90;99.90;;;;;;5030069;28;20106;-81
2023/05/25 07:02:21;;;;;;;7.43;2.97;;;17.20;99.90;;;;;;5032926;28;20792;-82
2023/05/25 07:04:46;;;;;;;8.18;2.65;;;17.40;99.90;;;;;;5029237;28;20037;-83
2023/05/25 07:07:12;;;;;;;9.75;3.30;;;17.30;99.90;;;;;;5030343;28;20040;-80
2023/05/25 07:09:39;;;;;;;11.65;4.38;;;17.00;99.90;;;;;;5033261;28;20551;-80
2023/05/25 07:12:06;;;;;;;12.25;3.20;;;16.90;99.90;;;;;;5029818;28;20048;-82
2023/05/25 07:14:33;;;;;;;11.25;3.70;;;16.90;99.90;;;;;;5025319;28;20049;-79
2023/05/25 07:16:59;;;;;;;11.63;3.88;;;16.60;99.90;;;;;;5026122;28;20041;-80
2023/05/25 07:19:24;;;;;;;8.18;2.92;;;16.50;99.90;;;;;;5032561;28;20560;-80
2023/05/25 07:21:50;;;;;;;14.43;3.15;;;16.40;99.90;;;;;;5048213;28;20419;-81
2023/05/25 07:24:17;;;;;;;14.65;3.65;;;16.60;99.90;;;;;;5032103;28;20065;-81
2023/05/25 07:26:43;;;;;;;14.80;3.20;;;16.70;99.90;;;;;;5035784;28;20052;-82
2023/05/25 07:29:09;;;;;;;14.98;3.33;;;16.80;99.90;;;;;;5035713;28;20515;-82
2023/05/25 07:31:35;;;;;;;11.65;3.08;;;16.70;99.90;;;;;;5036471;28;20186;-80
2023/05/25 07:34:00;;;;;;;15.20;4.38;;;16.70;99.90;;;;;;5032133;28;20616;-80
2023/05/25 07:36:26;;;;;;;12.40;2.90;;;16.70;99.90;;;;;;5033931;28;20140;-81
2023/05/25 07:38:52;;;;;;;14.65;3.70;;;16.70;99.90;;;;;;5033306;28;20033;-82
2023/05/25 07:41:17;;;;;;;15.00;3.40;;;16.70;99.90;;;;;;5033374;28;20044;-81
2023/05/25 07:43:43;;;;;;;12.60;3.00;;;16.60;99.90;;;;;;5031974;28;20045;-82
2023/05/25 07:46:09;;;;;;;12.23;2.90;;;16.60;99.90;;;;;;5039750;28;20131;-82
2023/05/25 07:48:34;;;;;;;10.38;2.38;;;16.60;99.90;;;;;;5035849;28;20036;-83
2023/05/25 07:51:00;;;;;;;13.73;3.97;;;16.70;99.90;;;;;;5033151;28;20049;-80
2023/05/25 07:53:25;;;;;;;11.10;3.35;;;16.80;99.90;;;;;;5032772;28;20053;-82
2023/05/25 07:55:51;;;;;;;13.00;3.05;;;16.90;99.90;;;;;;5034886;28;21105;-81
2023/05/25 07:58:17;;;;;;;19.10;3.25;;;17.00;99.90;;;;;;5035074;28;20049;-79
2023/05/25 08:00:43;;;;;;;13.23;3.53;;;17.10;99.90;;;;;;5031519;28;20051;-81
2023/05/25 08:03:09;;;;;;;15.27;4.22;;;17.20;99.90;;;;;;5033620;28;20447;-82
2023/05/25 08:05:35;;;;;;;14.27;3.47;;;17.20;99.90;;;;;;5032301;28;21362;-80
2023/05/25 08:08:00;;;;;;;16.00;3.75;;;17.10;99.90;;;;;;5031169;28;20063;-80
2023/05/25 08:10:30;;;;;;;17.83;3.47;;;17.00;99.90;;;;;;5032660;28;20041;-80
2023/05/25 08:12:57;;;;;;;13.93;3.45;;;16.80;99.90;;;;;;5035235;28;20099;-83
2023/05/25 08:15:22;;;;;;;13.93;3.70;;;16.70;99.90;;;;;;5030574;28;20053;-81
2023/05/25 08:17:49;;;;;;;14.52;3.78;;;16.70;99.90;;;;;;5035780;28;22173;-81
2023/05/25 08:20:16;;;;;;;13.05;3.10;;;16.60;99.90;;;;;;5035633;28;20048;-82
2023/05/25 08:22:42;;;;;;;15.75;4.22;;;16.60;99.90;;;;;;5032945;28;20045;-80
2023/05/25 08:25:12;;;;;;;18.35;4.20;;;16.40;99.90;;;;;;5033372;28;20685;-82
2023/05/25 08:27:38;;;;;;;16.92;4.50;;;16.30;99.90;;;;;;5018212;28;20033;-80
2023/05/25 08:30:07;;;;;;;12.48;3.20;;;16.20;99.90;;;;;;5033675;28;20862;-80
2023/05/25 08:32:32;;;;;;;17.88;4.20;;;16.10;99.90;;;;;;5043902;28;20060;-81
2023/05/25 08:34:58;;;;;;;12.88;3.67;;;16.10;99.90;;;;;;5047406;28;20037;-82
2023/05/25 08:37:25;;;;;;;10.30;3.03;;;16.10;99.90;;;;;;5052361;28;20105;-81
2023/05/25 08:39:50;;;;;;;17.13;4.50;;;16.20;99.90;;;;;;5050491;28;20048;-82
2023/05/25 08:42:16;;;;;;;11.60;2.88;;;16.10;99.90;;;;;;5052337;28;20033;-82
2023/05/25 08:44:41;;;;;;;14.85;4.28;;;16.00;99.90;;;;;;5050253;28;20037;-82
2023/05/25 08:47:07;;;;;;;14.13;3.50;;;15.80;99.90;;;;;;5051317;28;20048;-81
2023/05/25 08:49:40;;;;;;;18.50;4.50;;;15.80;99.90;;;;;;5033373;28;20052;-81
2023/05/25 08:52:12;;;;;;;16.95;3.97;;;16.30;99.90;;;;;;5048601;28;20037;-83
2023/05/25 08:54:41;;;;;;;19.35;5.05;;;16.60;99.90;;;;;;5051795;28;20033;-82
2023/05/25 08:57:11;;;;;;;22.00;4.40;;;16.70;99.90;;;;;;5036914;28;20037;-80
2023/05/25 08:59:49;;;;;;;15.25;3.80;;;16.70;99.90;;;;;;5031984;28;20590;-82
2023/05/25 09:02:37;;;;;;;20.90;4.68;;;16.60;99.90;;;;;;5032087;28;20044;-80
2023/05/25 09:05:04;;;;;;;16.95;3.97;;;16.40;99.90;;;;;;5034035;28;20048;-79
2023/05/25 09:07:30;;;;;;;19.08;4.20;;;16.30;99.90;;;;;;5035721;28;20045;-80
2023/05/25 09:09:56;;;;;;;17.10;4.40;;;16.20;99.90;;;;;;5033229;28;20041;-79
2023/05/25 09:12:22;;;;;;;21.90;5.70;;;16.00;99.90;;;;;;5036002;28;20128;-80
2023/05/25 09:14:49;;;;;;;22.70;4.80;;;15.90;99.90;;;;;;5032566;28;20037;-82
2023/05/25 09:17:15;;;;;;;16.17;4.53;;;15.70;99.90;;;;;;5035490;28;20085;-82
2023/05/25 09:19:41;;;;;;;24.30;5.68;;;16.00;99.90;;;;;;5033977;28;20071;-82
2023/05/25 09:22:09;;;;;;;18.17;4.05;;;16.60;99.90;;;;;;5033742;28;20128;-82
2023/05/25 09:24:35;;;;;;;18.67;4.20;;;17.20;99.90;;;;;;5030009;28;21868;-82
2023/05/25 09:27:02;;;;;;;15.85;3.88;;;17.50;99.90;;;;;;5034963;28;20333;-82
2023/05/25 09:29:28;;;;;;;23.02;3.78;;;17.70;99.90;;;;;;5032182;28;20053;-82
2023/05/25 09:31:55;;;;;;;18.65;4.00;;;18.00;99.90;;;;;;5030464;28;20043;-80
2023/05/25 09:34:21;;;;;;;18.75;4.60;;;18.10;99.90;;;;;;5032671;28;21014;-79
2023/05/25 09:36:46;;;;;;;15.45;4.63;;;18.10;99.90;;;;;;5032689;28;20048;-80
2023/05/25 09:39:14;;;;;;;15.77;4.65;;;18.00;99.90;;;;;;5046515;28;20059;-81
2023/05/25 09:41:40;;;;;;;19.80;4.63;;;18.30;99.90;;;;;;5046316;28;20699;-82
2023/05/25 09:44:06;;;;;;;21.15;5.93;;;18.40;99.90;;;;;;5032427;28;20044;-80
2023/05/25 09:46:35;;;;;;;17.20;5.40;;;18.40;99.90;;;;;;5034403;28;20044;-80
2023/05/25 09:49:03;;;;;;;21.02;4.45;;;18.20;99.90;;;;;;5031159;28;20044;-81
2023/05/25 09:51:32;;;;;;;18.95;5.00;;;18.20;99.90;;;;;;5032042;28;20098;-82
2023/05/25 09:53:59;;;;;;;19.08;4.07;;;17.90;99.90;;;;;;5032935;28;20041;-82
2023/05/25 09:56:27;;;;;;;17.75;4.28;;;17.60;99.90;;;;;;5028337;28;20102;-81
2023/05/25 09:58:52;;;;;;;17.98;4.50;;;17.50;99.90;;;;;;5030596;28;20048;-81
2023/05/25 10:01:18;;;;;;;16.38;4.43;;;17.50;99.90;;;;;;5032879;28;20044;-82
2023/05/25 10:03:47;;;;;;;18.55;4.72;;;17.40;99.90;;;;;;5016136;28;20047;-80
2023/05/25 10:06:17;;;;;;;17.60;4.18;;;17.40;99.90;;;;;;5031919;28;20487;-80
2023/05/25 10:08:47;;;;;;;20.73;4.40;;;18.00;99.90;;;;;;5032010;28;20147;-79
2023/05/25 10:11:15;;;;;;;22.08;7.00;;;17.50;99.90;;;;;;5032516;28;20036;-82
2023/05/25 10:13:43;;;;;;;13.73;4.40;;;17.50;99.90;;;;;;5032722;28;20060;-82
2023/05/25 10:16:16;;;;;;;14.68;4.47;;;17.60;99.90;;;;;;5035542;28;20487;-81
2023/05/25 10:19:20;;;;;;;;;;;;;;;;;;;;;
2023/05/25 10:22:03;;;;;;;18.98;4.63;;;17.70;99.90;;;;;;5025110;28;20064;-80
2023/05/25 10:25:00;;;;;;;15.07;4.25;;;17.50;99.90;;;;;;5031498;28;20040;-82
2023/05/25 10:27:37;;;;;;;16.40;4.22;;;17.50;99.90;;;;;;5005018;28;20711;-82
2023/05/25 10:30:04;;;;;;;14.48;3.88;;;17.60;99.90;;;;;;5029647;28;20059;-80
2023/05/25 10:32:31;;;;;;;20.25;5.30;;;17.60;99.90;;;;;;5039558;28;20063;-82
2023/05/25 10:34:58;;;;;;;16.25;4.13;;;17.60;99.90;;;;;;5048420;28;20049;-83
2023/05/25 10:37:27;;;;;;;15.70;4.13;;;17.60;99.90;;;;;;5042879;28;20089;-83
2023/05/25 10:39:54;;;;;;;15.38;4.65;;;17.50;99.90;;;;;;5046423;28;20131;-82
2023/05/25 10:42:19;;;;;;;19.13;4.35;;;17.60;99.90;;;;;;5039076;28;20491;-80
2023/05/25 10:44:45;;;;;;;20.60;4.47;;;18.00;99.90;;;;;;5024986;28;20106;-80
2023/05/25 10:47:11;;;;;;;22.20;4.47;;;17.90;99.90;;;;;;5021429;28;20615;-80
2023/05/25 10:49:54;;;;;;;14.95;4.28;;;17.80;99.90;;;;;;5029667;28;20042;-80
2023/05/25 10:52:25;;;;;;;17.25;4.20;;;17.60;99.90;;;;;;5032880;28;20045;-83
2023/05/25 10:54:55;;;;;;;20.17;5.22;;;17.60;99.90;;;;;;5015606;28;20129;-82
2023/05/25 10:57:23;;;;;;;16.02;4.15;;;17.70;99.90;;;;;;5033033;28;20048;-81
2023/05/25 10:59:50;;;;;;;15.38;4.00;;;17.70;99.90;;;;;;5030453;28;20045;-81
2023/05/25 11:02:16;;;;;;;16.65;4.50;;;17.60;99.90;;;;;;5030779;28;20510;-82
2023/05/25 11:04:45;;;;;;;19.15;4.82;;;17.90;99.90;;;;;;5029753;28;20412;-81
2023/05/25 11:07:15;;;;;;;17.52;4.30;;;18.20;99.90;;;;;;5029831;28;20131;-80
2023/05/25 11:09:44;;;;;;;19.10;4.53;;;18.40;99.90;;;;;;5030344;28;20163;-81
2023/05/25 11:12:20;;;;;;;22.52;4.72;;;18.40;99.90;;;;;;5030125;28;20886;-80
2023/05/25 11:15:11;;;;;;;21.40;4.53;;;18.30;99.90;;;;;;5029727;28;20045;-81
2023/05/25 11:18:02;;;;;;;17.33;4.80;;;18.20;99.90;;;;;;5028810;28;20033;-83
2023/05/25 11:20:28;;;;;;;16.92;4.20;;;18.30;99.90;;;;;;5024750;28;20055;-79
2023/05/25 11:22:56;;;;;;;16.30;4.57;;;18.50;99.90;;;;;;5030174;28;20135;-80
2023/05/25 11:25:35;;;;;;;23.83;5.90;;;18.40;99.90;;;;;;5033918;28;20045;-79
2023/05/25 11:28:05;;;;;;;20.83;4.35;;;18.30;99.90;;;;;;5033242;28;20701;-81
2023/05/25 11:30:31;;;;;;;19.05;5.78;;;18.40;99.90;;;;;;5036828;28;20490;-82
2023/05/25 11:33:06;;;;;;;18.70;4.40;;;18.50;99.90;;;;;;5031753;28;20124;-81
2023/05/25 11:35:35;;;;;;;;;;;18.30;99.90;;;;;;5029877;28;20055;-79
2023/05/25 11:38:05;;;;;;;17.00;4.32;;;18.40;99.90;;;;;;5027096;28;19924;-82
2023/05/25 11:40:31;;;;;;;26.52;6.03;;;18.20;99.90;;;;;;5031811;28;20049;-82
2023/05/25 11:43:00;;;;;;;16.40;4.65;;;17.80;99.90;;;;;;5029003;28;20250;-81
2023/05/25 11:45:32;;;;;;;21.15;5.70;;;17.60;99.90;;;;;;5032164;28;20174;-82
2023/05/25 11:47:58;;;;;;;19.15;4.85;;;17.80;99.90;;;;;;5028444;28;20055;-80
2023/05/25 11:50:23;;;;;;;20.30;5.93;;;17.70;99.90;;;;;;5034814;28;20049;-80
2023/05/25 11:52:49;;;;;;;20.40;4.65;;;17.60;99.90;;;;;;5027635;28;20069;-82
2023/05/25 11:55:15;;;;;;;21.00;5.10;;;17.50;99.90;;;;;;5028443;28;20041;-79
2023/05/25 11:57:40;;;;;;;18.23;4.28;;;17.60;99.90;;;;;;5031919;28;20083;-79
2023/05/25 12:00:10;;;;;;;22.88;5.80;;;17.80;99.90;;;;;;5029916;28;20045;-79
2023/05/25 12:02:44;;;;;;;20.05;5.35;;;18.10;99.90;;;;;;5030236;28;20033;-81
2023/05/25 12:05:10;;;;;;;19.08;5.15;;;18.10;99.90;;;;;;5032371;28;20055;-82
2023/05/25 12:07:42;;;;;;;18.75;4.90;;;18.20;99.90;;;;;;5033018;28;20044;-80
2023/05/25 12:10:10;;;;;;;21.90;5.32;;;18.20;99.90;;;;;;5033747;28;20037;-80
2023/05/25 12:12:46;;;;;;;14.88;4.18;;;18.00;99.90;;;;;;5035110;28;20137;-81
2023/05/25 12:15:20;;;;;;;16.98;4.32;;;17.90;99.90;;;;;;5030487;28;20079;-82
2023/05/25 12:17:46;;;;;;;22.02;5.80;;;17.90;99.90;;;;;;5032441;28;20087;-80
2023/05/25 12:20:14;;;;;;;18.45;4.80;;;17.80;99.90;;;;;;5032375;28;20156;-83
2023/05/25 12:22:40;;;;;;;27.00;5.93;;;17.70;99.90;;;;;;5031965;28;20048;-80
2023/05/25 12:25:07;;;;;;;17.23;4.18;;;17.70;99.90;;;;;;5031424;28;20043;-80
2023/05/25 12:27:33;;;;;;;20.15;5.53;;;17.80;99.90;;;;;;5035891;28;20045;-82
2023/05/25 12:29:59;;;;;;;18.63;5.45;;;17.90;99.90;;;;;;5033328;28;20138;-82
2023/05/25 12:32:25;;;;;;;19.38;4.60;;;18.00;99.90;;;;;;5030363;28;20049;-80
2023/05/25 12:34:50;;;;;;;23.30;5.78;;;17.90;99.90;;;;;;5033608;28;20089;-79
2023/05/25 12:37:20;;;;;;;21.77;5.45;;;17.90;99.90;;;;;;5031357;28;21005;-79
2023/05/25 12:39:47;;;;;;;17.25;5.22;;;17.90;99.90;;;;;;5016581;28;20124;-81
2023/05/25 12:42:14;;;;;;;20.35;5.25;;;18.00;99.90;;;;;;5029433;28;20072;-82
2023/05/25 12:44:40;;;;;;;17.98;5.22;;;18.20;99.90;;;;;;5031074;28;20045;-82
2023/05/25 12:47:11;;;;;;;24.75;5.75;;;18.30;99.90;;;;;;5031869;28;20055;-82